createdAt,value
2023-02-22T00:00:42.936Z,62.83
2023-02-22T00:03:15.084Z,62.81
2023-02-22T00:05:46.934Z,63.11
2023-02-22T00:08:17.881Z,63.20
2023-02-22T00:10:46.257Z,63.64
2023-02-22T00:13:15.563Z,63.08
2023-02-22T00:15:44.285Z,61.14
2023-02-22T00:18:15.333Z,61.26
2023-02-22T00:20:43.249Z,60.60
2023-02-22T00:23:18.994Z,60.20
2023-02-22T00:25:47.125Z,60.22
2023-02-22T00:28:16.977Z,60.09
2023-02-22T00:30:45.069Z,62.43
2023-02-22T00:33:15.477Z,62.24
2023-02-22T00:35:45.739Z,61.00
2023-02-22T00:38:16.777Z,61.71
2023-02-22T00:40:45.314Z,64.21
2023-02-22T00:43:13.614Z,62.52
2023-02-22T00:45:42.447Z,62.73
2023-02-22T00:48:11.240Z,62.85
2023-02-22T00:50:39.359Z,62.14
2023-02-22T00:53:09.245Z,61.53
2023-02-22T00:55:39.212Z,61.86
2023-02-22T00:58:08.554Z,63.00
2023-02-22T01:00:38.733Z,62.44
2023-02-22T01:03:07.666Z,63.16
2023-02-22T01:05:36.471Z,62.30
2023-02-22T01:08:07.547Z,62.17
2023-02-22T01:10:35.529Z,63.42
2023-02-22T01:13:09.160Z,64.17
2023-02-22T01:15:41.464Z,65.61
2023-02-22T01:18:10.104Z,63.40
2023-02-22T01:20:38.096Z,63.12
2023-02-22T01:23:08.097Z,62.91
2023-02-22T01:25:36.927Z,64.99
2023-02-22T01:28:07.962Z,62.96
2023-02-22T01:30:37.322Z,63.54
2023-02-22T01:33:08.003Z,64.69
2023-02-22T01:35:38.516Z,65.08
2023-02-22T01:38:08.512Z,65.66
2023-02-22T01:40:41.849Z,66.39
2023-02-22T01:43:23.662Z,66.42
2023-02-22T01:45:59.974Z,66.32
2023-02-22T01:48:33.360Z,66.29
2023-02-22T01:51:04.006Z,67.16
2023-02-22T01:53:36.262Z,66.88
2023-02-22T01:56:05.738Z,66.96
2023-02-22T01:58:38.014Z,68.32
2023-02-22T02:01:07.695Z,68.81
2023-02-22T02:03:38.529Z,69.44
2023-02-22T02:06:11.910Z,69.12
2023-02-22T02:08:49.748Z,68.94
2023-02-22T02:11:20.552Z,68.72
2023-02-22T02:13:51.713Z,68.71
2023-02-22T02:16:21.864Z,69.01
2023-02-22T02:18:49.989Z,69.20
2023-02-22T02:21:50.578Z,69.23
2023-02-22T02:25:18.402Z,68.74
2023-02-22T02:28:13.790Z,69.06
2023-02-22T02:31:13.495Z,69.42
2023-02-22T02:33:46.077Z,68.90
2023-02-22T02:36:20.502Z,68.51
2023-02-22T02:38:55.913Z,69.40
2023-02-22T02:41:27.935Z,69.30
2023-02-22T02:44:00.829Z,68.96
2023-02-22T02:46:34.883Z,69.46
2023-02-22T02:49:09.653Z,69.36
2023-02-22T02:51:41.395Z,69.31
2023-02-22T02:54:11.199Z,69.29
2023-02-22T02:56:39.302Z,70.11
2023-02-22T02:59:25.188Z,69.61
2023-02-22T03:02:08.200Z,70.77
2023-02-22T03:04:54.162Z,69.96
2023-02-22T03:07:34.465Z,70.19
2023-02-22T03:10:25.458Z,70.33
2023-02-22T03:13:02.273Z,70.87
2023-02-22T03:15:41.650Z,70.62
2023-02-22T03:18:17.791Z,70.52
2023-02-22T03:20:54.275Z,70.35
2023-02-22T03:23:29.712Z,70.58
2023-02-22T03:26:02.439Z,70.32
2023-02-22T03:28:34.854Z,70.54
2023-02-22T03:31:07.167Z,70.46
2023-02-22T03:33:41.298Z,70.47
2023-02-22T03:36:15.489Z,70.76
2023-02-22T03:38:45.304Z,70.74
2023-02-22T03:41:18.624Z,71.29
2023-02-22T03:43:50.700Z,71.30
2023-02-22T03:46:20.337Z,71.44
2023-02-22T03:48:57.283Z,71.55
2023-02-22T03:51:27.922Z,71.55
2023-02-22T03:54:00.573Z,72.23
2023-02-22T03:56:39.478Z,72.20
2023-02-22T03:59:11.102Z,72.72
2023-02-22T04:01:39.017Z,72.33
2023-02-22T04:04:07.907Z,73.17
2023-02-22T04:06:39.524Z,73.29
2023-02-22T04:09:08.664Z,73.57
2023-02-22T04:11:36.509Z,73.51
2023-02-22T04:14:05.190Z,73.80
2023-02-22T04:16:33.229Z,73.96
2023-02-22T04:19:01.632Z,74.26
2023-02-22T04:21:30.038Z,74.07
2023-02-22T04:23:59.607Z,74.37
2023-02-22T04:26:27.714Z,74.24
2023-02-22T04:28:58.290Z,74.27
2023-02-22T04:31:29.866Z,73.80
2023-02-22T04:34:00.102Z,74.07
2023-02-22T04:36:32.269Z,74.04
2023-02-22T04:39:02.944Z,73.48
2023-02-22T04:41:32.248Z,74.02
2023-02-22T04:44:00.257Z,73.60
2023-02-22T04:46:29.052Z,73.37
2023-02-22T04:48:58.000Z,73.34
2023-02-22T04:51:29.113Z,72.81
2023-02-22T04:54:07.791Z,72.73
2023-02-22T04:56:38.128Z,73.36
2023-02-22T04:59:06.988Z,73.57
2023-02-22T05:01:36.498Z,73.81
2023-02-22T05:04:05.438Z,73.70
2023-02-22T05:06:33.604Z,74.36
2023-02-22T05:09:01.444Z,74.63
2023-02-22T05:11:30.665Z,74.46
2023-02-22T05:13:58.595Z,74.67
2023-02-22T05:16:26.475Z,74.76
2023-02-22T05:18:54.563Z,74.56
2023-02-22T05:21:22.635Z,74.80
2023-02-22T05:23:50.609Z,75.29
2023-02-22T05:26:19.037Z,75.41
2023-02-22T05:28:48.346Z,75.29
2023-02-22T05:31:17.607Z,74.39
2023-02-22T05:33:45.618Z,74.12
2023-02-22T05:36:13.470Z,73.20
2023-02-22T05:38:43.438Z,73.47
2023-02-22T05:41:12.697Z,72.88
2023-02-22T05:43:40.776Z,72.92
2023-02-22T05:46:10.128Z,72.96
2023-02-22T05:48:38.126Z,72.70
2023-02-22T05:51:06.630Z,72.12
2023-02-22T05:53:34.681Z,73.44
2023-02-22T05:56:02.591Z,72.61
2023-02-22T05:58:30.622Z,72.91
2023-02-22T06:00:58.542Z,73.15
2023-02-22T06:03:27.801Z,72.81
2023-02-22T06:05:55.698Z,72.26
2023-02-22T06:08:23.549Z,72.31
2023-02-22T06:10:51.456Z,71.89
2023-02-22T06:13:19.274Z,72.78
2023-02-22T06:15:47.437Z,73.16
2023-02-22T06:18:15.332Z,72.71
2023-02-22T06:20:44.520Z,72.41
2023-02-22T06:23:12.389Z,72.27
2023-02-22T06:25:40.339Z,72.02
2023-02-22T06:28:08.224Z,71.36
2023-02-22T06:30:36.255Z,72.94
2023-02-22T06:33:04.226Z,71.85
2023-02-22T06:35:32.112Z,70.41
2023-02-22T06:38:01.471Z,70.78
2023-02-22T06:40:29.801Z,69.83
2023-02-22T06:42:58.622Z,71.16
2023-02-22T06:45:26.999Z,70.63
2023-02-22T06:47:55.561Z,71.11
2023-02-22T06:50:25.327Z,70.83
2023-02-22T06:52:56.848Z,70.73
2023-02-22T06:55:29.246Z,69.24
2023-02-22T06:57:57.796Z,68.97
2023-02-22T07:00:27.029Z,68.47
2023-02-22T07:02:55.393Z,68.15
2023-02-22T07:05:24.722Z,68.61
2023-02-22T07:07:54.884Z,69.12
2023-02-22T07:10:27.165Z,69.73
2023-02-22T07:12:55.359Z,68.23
2023-02-22T07:15:25.873Z,68.31
2023-02-22T07:17:53.927Z,67.54
2023-02-22T07:20:24.460Z,67.45
2023-02-22T07:22:52.946Z,67.44
2023-02-22T07:25:21.350Z,67.82
2023-02-22T07:27:52.479Z,68.15
2023-02-22T07:30:25.199Z,68.54
2023-02-22T07:32:54.773Z,68.45
2023-02-22T07:35:25.378Z,68.17
2023-02-22T07:37:55.828Z,68.46
2023-02-22T07:40:25.503Z,69.09
2023-02-22T07:42:57.123Z,67.89
2023-02-22T07:45:26.944Z,67.43
2023-02-22T07:47:55.034Z,67.07
2023-02-22T07:50:24.801Z,67.38
2023-02-22T07:52:54.413Z,68.50
2023-02-22T07:55:25.040Z,68.87
2023-02-22T07:57:55.908Z,68.26
2023-02-22T08:00:27.107Z,67.80
2023-02-22T08:02:55.133Z,68.07
2023-02-22T08:05:25.495Z,68.02
2023-02-22T08:07:53.625Z,68.56
2023-02-22T08:10:23.366Z,69.17
2023-02-22T08:12:51.927Z,68.04
2023-02-22T08:15:25.607Z,68.31
2023-02-22T08:17:54.473Z,68.08
2023-02-22T08:20:23.384Z,67.57
2023-02-22T08:22:52.089Z,67.40
2023-02-22T08:25:21.964Z,68.19
2023-02-22T08:27:50.864Z,68.34
2023-02-22T08:30:24.548Z,67.53
2023-02-22T08:32:52.812Z,67.17
2023-02-22T08:35:21.964Z,66.44
2023-02-22T08:37:51.850Z,66.24
2023-02-22T08:40:21.798Z,65.67
2023-02-22T08:42:49.704Z,66.40
2023-02-22T08:45:18.170Z,65.11
2023-02-22T08:47:47.591Z,65.26
2023-02-22T08:50:18.920Z,65.13
2023-02-22T08:52:46.826Z,64.92
2023-02-22T08:55:15.021Z,64.75
2023-02-22T08:57:42.827Z,65.14
2023-02-22T09:00:12.058Z,65.05
2023-02-22T09:02:39.936Z,65.86
2023-02-22T09:05:09.649Z,67.05
2023-02-22T09:07:37.594Z,65.38
2023-02-22T09:10:06.025Z,65.41
2023-02-22T09:12:33.853Z,64.65
2023-02-22T09:15:01.800Z,64.95
2023-02-22T09:17:30.384Z,64.49
2023-02-22T09:19:59.525Z,62.77
2023-02-22T09:22:29.110Z,62.55
2023-02-22T09:24:58.543Z,63.26
2023-02-22T09:27:29.001Z,62.66
2023-02-22T09:29:57.356Z,61.45
2023-02-22T09:32:27.705Z,61.62
2023-02-22T09:34:56.034Z,61.29
2023-02-22T09:37:23.992Z,61.93
2023-02-22T09:39:53.401Z,61.99
2023-02-22T09:42:29.562Z,61.19
2023-02-22T09:45:12.764Z,62.48
2023-02-22T09:47:46.632Z,61.50
2023-02-22T09:50:17.704Z,60.17
2023-02-22T09:52:55.324Z,60.74
2023-02-22T09:55:34.209Z,61.54
2023-02-22T09:58:05.024Z,61.63
2023-02-22T10:00:37.896Z,59.84
2023-02-22T10:03:21.856Z,58.71
2023-02-22T10:05:57.686Z,59.01
2023-02-22T10:08:31.163Z,59.69
2023-02-22T10:11:11.711Z,60.36
2023-02-22T10:13:52.697Z,60.36
2023-02-22T10:16:28.305Z,59.15
2023-02-22T10:19:22.552Z,59.62
2023-02-22T10:22:20.464Z,58.56
2023-02-22T10:24:58.289Z,58.07
2023-02-22T10:27:34.198Z,59.57
2023-02-22T10:30:23.350Z,59.07
2023-02-22T10:32:58.981Z,59.06
2023-02-22T10:35:30.212Z,60.72
2023-02-22T10:38:02.005Z,60.83
2023-02-22T10:40:35.946Z,59.99
2023-02-22T10:43:07.653Z,59.74
2023-02-22T10:45:37.186Z,58.79
2023-02-22T10:48:11.487Z,58.19
2023-02-22T10:50:42.024Z,57.59
2023-02-22T10:53:11.008Z,58.29
2023-02-22T10:56:09.760Z,57.87
2023-02-22T10:58:44.296Z,57.95
2023-02-22T11:01:37.499Z,59.50
2023-02-22T11:04:12.418Z,59.23
2023-02-22T11:06:42.495Z,59.63
2023-02-22T11:09:14.488Z,58.09
2023-02-22T11:11:44.478Z,57.65
2023-02-22T11:14:16.249Z,57.80
2023-02-22T11:16:50.784Z,57.25
2023-02-22T11:19:23.227Z,56.81
2023-02-22T11:21:53.224Z,57.13
2023-02-22T11:24:24.670Z,59.01
2023-02-22T11:26:56.278Z,58.16
2023-02-22T11:29:28.804Z,58.58
2023-02-22T11:31:57.045Z,58.20
2023-02-22T11:34:34.783Z,59.74
2023-02-22T11:37:31.197Z,58.26
2023-02-22T11:40:08.717Z,59.44
2023-02-22T11:42:36.589Z,60.67
2023-02-22T11:45:20.768Z,60.12
2023-02-22T11:48:00.924Z,59.03
2023-02-22T11:50:31.462Z,59.46
2023-02-22T11:53:13.620Z,60.37
2023-02-22T11:55:53.078Z,58.35
2023-02-22T11:58:37.795Z,58.38
2023-02-22T12:01:18.326Z,57.10
2023-02-22T12:04:28.909Z,55.87
2023-02-22T12:07:15.768Z,55.79
2023-02-22T12:09:52.936Z,57.96
2023-02-22T12:12:29.099Z,57.71
2023-02-22T12:15:04.091Z,57.27
2023-02-22T12:17:59.397Z,55.76
2023-02-22T12:20:33.028Z,55.16
2023-02-22T12:23:07.919Z,54.83
2023-02-22T12:25:39.484Z,56.13
2023-02-22T12:28:24.643Z,55.76
2023-02-22T12:31:00.868Z,56.95
2023-02-22T12:33:38.911Z,56.97
2023-02-22T12:36:07.730Z,57.20
2023-02-22T12:38:40.594Z,56.64
2023-02-22T12:41:14.874Z,56.01
2023-02-22T12:43:48.971Z,56.60
2023-02-22T12:46:22.462Z,56.16
2023-02-22T12:49:00.450Z,56.86
2023-02-22T12:51:37.226Z,57.18
2023-02-22T12:54:14.504Z,57.09
2023-02-22T12:56:49.105Z,58.04
2023-02-22T12:59:21.916Z,57.94
2023-02-22T13:01:55.075Z,55.17
2023-02-22T13:04:24.355Z,55.44
2023-02-22T13:07:06.283Z,57.38
2023-02-22T13:09:59.504Z,57.59
2023-02-22T13:12:37.118Z,57.19
2023-02-22T13:15:17.059Z,57.48
2023-02-22T13:17:54.254Z,57.08
2023-02-22T13:20:29.141Z,57.05
2023-02-22T13:23:03.977Z,55.41
2023-02-22T13:25:39.281Z,55.93
2023-02-22T13:28:21.651Z,55.29
2023-02-22T13:31:03.051Z,56.20
2023-02-22T13:33:42.887Z,56.37
2023-02-22T13:36:23.839Z,55.30
2023-02-22T13:39:22.208Z,56.48
2023-02-22T13:42:06.045Z,55.85
2023-02-22T13:45:16.560Z,56.03
2023-02-22T13:48:12.767Z,56.56
2023-02-22T13:51:11.001Z,56.69
2023-02-22T13:53:49.783Z,54.96
2023-02-22T13:56:21.074Z,56.05
2023-02-22T13:58:52.955Z,56.24
2023-02-22T14:01:42.058Z,55.28
2023-02-22T14:04:45.130Z,56.29
2023-02-22T14:07:48.757Z,54.67
2023-02-22T14:10:40.612Z,56.75
2023-02-22T14:13:09.026Z,55.87
2023-02-22T14:15:36.944Z,55.47
2023-02-22T14:18:07.419Z,56.62
2023-02-22T14:20:36.916Z,56.43
2023-02-22T14:23:34.395Z,56.52
2023-02-22T14:26:15.239Z,56.42
2023-02-22T14:28:51.929Z,56.39
2023-02-22T14:31:35.333Z,56.67
2023-02-22T14:34:10.593Z,58.06
2023-02-22T14:36:45.748Z,58.50
2023-02-22T14:39:20.612Z,58.52
2023-02-22T14:41:55.809Z,59.16
2023-02-22T14:44:28.927Z,57.34
2023-02-22T14:47:02.300Z,58.23
2023-02-22T14:49:33.036Z,59.03
2023-02-22T14:52:06.089Z,57.67
2023-02-22T14:54:42.219Z,58.01
2023-02-22T14:57:21.627Z,57.06
2023-02-22T15:00:00.842Z,56.97
2023-02-22T15:02:28.749Z,56.63
2023-02-22T15:04:57.254Z,57.27
2023-02-22T15:07:29.653Z,57.78
2023-02-22T15:10:20.636Z,57.51
2023-02-22T15:13:10.942Z,58.88
2023-02-22T15:15:43.763Z,57.00
2023-02-22T15:18:25.638Z,58.20
2023-02-22T15:20:57.646Z,58.87
2023-02-22T15:23:33.263Z,57.82
2023-02-22T15:26:01.349Z,58.08
2023-02-22T15:28:32.164Z,59.27
2023-02-22T15:31:24.800Z,59.22
2023-02-22T15:33:55.007Z,58.09
2023-02-22T15:36:27.828Z,58.39
2023-02-22T15:38:56.891Z,58.85
2023-02-22T15:41:28.822Z,59.37
2023-02-22T15:44:22.727Z,59.89
2023-02-22T15:46:54.354Z,58.25
2023-02-22T15:49:24.490Z,59.49
2023-02-22T15:52:08.339Z,59.07
2023-02-22T15:54:42.796Z,60.80
2023-02-22T15:57:11.290Z,60.51
2023-02-22T15:59:48.054Z,60.58
2023-02-22T16:02:41.638Z,61.44
2023-02-22T16:05:12.689Z,61.08
2023-02-22T16:07:45.305Z,61.80
2023-02-22T16:10:27.239Z,61.68
2023-02-22T16:13:30.998Z,61.31
2023-02-22T16:16:03.393Z,61.46
2023-02-22T16:18:34.465Z,60.55
2023-02-22T16:21:05.526Z,61.97
2023-02-22T16:23:45.142Z,62.21
2023-02-22T16:26:24.121Z,61.02
2023-02-22T16:28:56.088Z,62.42
2023-02-22T16:31:27.399Z,62.29
2023-02-22T16:33:56.060Z,62.44
2023-02-22T16:36:37.007Z,62.22
2023-02-22T16:39:07.151Z,62.52
2023-02-22T16:41:35.290Z,62.76
2023-02-22T16:44:03.452Z,62.61
2023-02-22T16:46:32.719Z,61.77
2023-02-22T16:49:03.339Z,61.41
2023-02-22T16:51:45.086Z,61.92
2023-02-22T16:54:15.195Z,61.79
2023-02-22T16:56:43.114Z,61.76
2023-02-22T16:59:14.658Z,61.59
2023-02-22T17:01:45.027Z,62.17
2023-02-22T17:04:17.743Z,62.35
2023-02-22T17:06:45.953Z,62.78
2023-02-22T17:09:15.223Z,62.80
2023-02-22T17:11:44.499Z,62.74
2023-02-22T17:14:17.608Z,62.54
2023-02-22T17:16:47.593Z,62.46
2023-02-22T17:19:17.601Z,62.62
2023-02-22T17:21:45.726Z,62.03
2023-02-22T17:24:14.919Z,62.60
2023-02-22T17:26:43.020Z,62.59
2023-02-22T17:29:11.138Z,62.54
2023-02-22T17:31:39.249Z,62.25
2023-02-22T17:34:08.765Z,62.06
2023-02-22T17:36:37.400Z,62.14
2023-02-22T17:39:06.559Z,62.36
2023-02-22T17:41:34.449Z,62.69
2023-02-22T17:44:02.484Z,63.08
2023-02-22T17:46:30.622Z,62.67
2023-02-22T17:48:58.726Z,62.37
2023-02-22T17:51:27.992Z,62.31
2023-02-22T17:53:55.990Z,63.03
2023-02-22T17:56:23.857Z,62.37
2023-02-22T17:58:54.984Z,63.07
2023-02-22T18:01:27.024Z,62.63
2023-02-22T18:03:56.134Z,62.03
2023-02-22T18:06:27.282Z,62.09
2023-02-22T18:08:58.185Z,61.68
2023-02-22T18:11:27.428Z,61.89
2023-02-22T18:13:56.655Z,62.78
2023-02-22T18:16:26.596Z,63.01
2023-02-22T18:18:55.511Z,62.69
2023-02-22T18:21:24.024Z,62.18
2023-02-22T18:23:51.912Z,62.26
2023-02-22T18:26:23.274Z,62.44
2023-02-22T18:28:53.555Z,62.25
2023-02-22T18:31:23.320Z,61.98
2023-02-22T18:33:52.942Z,63.13
2023-02-22T18:36:23.138Z,63.11
2023-02-22T18:38:52.523Z,62.64
2023-02-22T18:41:25.663Z,62.73
2023-02-22T18:43:55.414Z,62.05
2023-02-22T18:46:25.146Z,62.30
2023-02-22T18:48:54.570Z,62.79
2023-02-22T18:51:23.589Z,61.90
2023-02-22T18:53:56.757Z,62.22
2023-02-22T18:56:29.805Z,62.13
2023-02-22T18:59:00.124Z,61.62
2023-02-22T19:01:28.969Z,62.15
2023-02-22T19:03:57.135Z,62.53
2023-02-22T19:06:25.013Z,62.54
2023-02-22T19:08:53.502Z,61.96
2023-02-22T19:11:23.616Z,61.58
2023-02-22T19:13:54.873Z,61.97
2023-02-22T19:16:24.647Z,63.20
2023-02-22T19:18:57.263Z,62.71
2023-02-22T19:21:26.895Z,62.73
2023-02-22T19:24:01.680Z,63.27
2023-02-22T19:26:30.204Z,63.17
2023-02-22T19:29:04.689Z,62.99
2023-02-22T19:31:34.551Z,63.16
2023-02-22T19:34:04.352Z,62.82
2023-02-22T19:36:32.824Z,63.66
2023-02-22T19:39:01.703Z,62.95
2023-02-22T19:41:29.940Z,63.11
2023-02-22T19:43:59.642Z,63.34
2023-02-22T19:46:28.205Z,63.06
2023-02-22T19:48:56.735Z,63.12
2023-02-22T19:51:27.793Z,63.11
2023-02-22T19:53:58.808Z,64.13
2023-02-22T19:56:27.644Z,63.21
2023-02-22T19:58:57.750Z,63.34
2023-02-22T20:01:29.914Z,63.58
2023-02-22T20:03:59.938Z,63.57
2023-02-22T20:06:29.572Z,64.33
2023-02-22T20:08:58.536Z,63.39
2023-02-22T20:11:26.449Z,63.81
2023-02-22T20:13:55.816Z,64.30
2023-02-22T20:16:24.086Z,64.90
2023-02-22T20:18:54.457Z,64.19
2023-02-22T20:21:26.919Z,64.23
2023-02-22T20:23:57.109Z,64.85
2023-02-22T20:26:27.503Z,65.35
2023-02-22T20:28:56.338Z,65.15
2023-02-22T20:31:24.580Z,66.51
2023-02-22T20:33:56.929Z,66.84
2023-02-22T20:36:25.558Z,65.56
2023-02-22T20:38:53.875Z,65.90
2023-02-22T20:41:25.397Z,65.12
2023-02-22T20:43:55.140Z,65.78
2023-02-22T20:46:24.773Z,65.13
2023-02-22T20:48:57.175Z,65.86
2023-02-22T20:51:25.581Z,65.72
2023-02-22T20:53:54.212Z,64.57
2023-02-22T20:56:23.610Z,64.23
2023-02-22T20:58:52.287Z,65.02
2023-02-22T21:01:22.476Z,65.03
2023-02-22T21:03:51.273Z,65.05
2023-02-22T21:06:22.980Z,65.11
2023-02-22T21:08:53.630Z,64.32
2023-02-22T21:11:22.977Z,64.45
2023-02-22T21:13:51.393Z,65.26
2023-02-22T21:16:21.034Z,65.33
2023-02-22T21:18:51.616Z,64.49
2023-02-22T21:21:21.837Z,64.07
2023-02-22T21:23:51.625Z,63.87
2023-02-22T21:26:23.463Z,63.65
2023-02-22T21:28:52.010Z,63.68
2023-02-22T21:31:22.240Z,63.89
2023-02-22T21:33:52.657Z,64.33
2023-02-22T21:36:25.285Z,64.33
2023-02-22T21:38:55.695Z,63.43
2023-02-22T21:41:27.503Z,63.91
2023-02-22T21:43:56.423Z,64.55
2023-02-22T21:46:24.820Z,64.45
2023-02-22T21:48:52.744Z,64.42
2023-02-22T21:51:25.287Z,63.62
2023-02-22T21:53:55.277Z,64.80
2023-02-22T21:56:27.516Z,64.94
2023-02-22T21:58:59.117Z,65.33
2023-02-22T22:01:28.487Z,64.81
2023-02-22T22:03:59.641Z,64.27
2023-02-22T22:06:30.452Z,64.58
2023-02-22T22:08:59.814Z,65.10
2023-02-22T22:11:30.519Z,65.58
2023-02-22T22:13:59.715Z,65.07
2023-02-22T22:16:29.834Z,65.37
2023-02-22T22:18:58.489Z,64.16
2023-02-22T22:21:27.882Z,64.60
2023-02-22T22:23:57.406Z,64.99
2023-02-22T22:26:27.318Z,64.46
2023-02-22T22:28:58.930Z,65.12
2023-02-22T22:31:29.023Z,65.84
2023-02-22T22:33:58.139Z,66.09
2023-02-22T22:36:28.701Z,66.40
2023-02-22T22:38:58.344Z,65.75
2023-02-22T22:41:28.118Z,67.37
2023-02-22T22:43:56.755Z,66.42
2023-02-22T22:46:24.931Z,66.21
2023-02-22T22:48:52.816Z,65.79
2023-02-22T22:51:21.987Z,66.28
2023-02-22T22:53:52.863Z,66.40
2023-02-22T22:56:26.391Z,67.52
2023-02-22T22:58:56.418Z,67.86
2023-02-22T23:01:27.315Z,66.88
2023-02-22T23:03:57.313Z,67.80
2023-02-22T23:06:30.803Z,67.05
2023-02-22T23:09:10.242Z,67.14
2023-02-22T23:11:44.522Z,67.94
2023-02-22T23:14:15.048Z,68.49
2023-02-22T23:16:45.173Z,68.38
2023-02-22T23:19:15.551Z,67.41
2023-02-22T23:21:44.564Z,68.68
2023-02-22T23:24:17.294Z,68.83
2023-02-22T23:26:48.769Z,69.45
2023-02-22T23:29:17.906Z,68.88
2023-02-22T23:31:48.333Z,68.99
2023-02-22T23:34:17.980Z,69.66
2023-02-22T23:36:46.871Z,69.14
2023-02-22T23:39:20.510Z,70.23
2023-02-22T23:41:51.412Z,70.03
2023-02-22T23:44:19.874Z,70.24
2023-02-22T23:46:49.403Z,70.59
2023-02-22T23:49:20.425Z,69.33
2023-02-22T23:51:49.456Z,69.21
2023-02-22T23:54:21.437Z,69.58
2023-02-22T23:56:56.643Z,69.59
2023-02-22T23:59:26.581Z,69.43
